Time;durP1;ratioP1;P1;durP2;ratioP2;P2;SDS_P1;SDS_P2;PMS_P1;PMS_P2;Temp;Humidity;BMP_temperature;BMP_pressure;BME280_temperature;BME280_humidity;BME280_pressure;Samples;Min_cycle;Max_cycle;Signal;HPM_P1;HPM_P2
2020/12/29 00:01:40;;;;;;;11.15;6.85;;;;;;;6.31;73.25;98020.17;1697979;82;25867;-91
2020/12/29 00:04:10;;;;;;;13.05;7.53;;;;;;;6.30;73.29;98018.08;1649455;84;25935;-93
2020/12/29 00:06:54;;;;;;;12.50;7.45;;;;;;;6.28;73.38;98021.36;1673815;84;26341;-92
2020/12/29 00:09:27;;;;;;;11.83;7.30;;;;;;;6.28;73.45;98020.06;1642477;84;25737;-90
2020/12/29 00:11:55;;;;;;;11.83;7.47;;;;;;;6.28;73.51;98016.67;1670435;85;25942;-91
2020/12/29 00:14:24;;;;;;;12.85;6.75;;;;;;;6.27;73.59;98017.64;1687614;84;25879;-90
2020/12/29 00:16:51;;;;;;;13.55;6.90;;;;;;;6.25;73.65;98016.56;1687090;83;25636;-91
2020/12/29 00:19:23;;;;;;;10.08;6.80;;;;;;;6.26;73.75;98012.16;1700987;82;25843;-90
2020/12/29 00:21:50;;;;;;;11.50;6.33;;;;;;;6.26;73.81;98016.06;1702747;82;25871;-90
2020/12/29 00:24:17;;;;;;;9.25;5.67;;;;;;;6.26;73.85;98016.06;1706405;82;26050;-90
2020/12/29 00:26:43;;;;;;;10.85;7.12;;;;;;;6.26;73.95;98011.66;1699922;82;25982;-89
2020/12/29 00:29:10;;;;;;;11.48;6.75;;;;;;;6.30;74.06;98007.70;1701783;83;26335;-89
2020/12/29 00:31:37;;;;;;;14.38;7.53;;;;;;;6.31;74.07;98001.51;1699147;82;25912;-89
2020/12/29 00:34:04;;;;;;;10.80;6.83;;;;;;;6.35;74.13;98012.28;1713077;82;25802;-90
2020/12/29 00:36:31;;;;;;;13.18;7.05;;;;;;;6.35;74.18;97996.21;1706479;83;25776;-89
2020/12/29 00:38:58;;;;;;;12.30;8.08;;;;;;;6.34;74.13;97988.14;1703837;83;26433;-92
2020/12/29 00:41:25;;;;;;;14.55;7.65;;;;;;;6.33;74.22;97981.36;1684979;83;25964;-92
2020/12/29 00:43:53;;;;;;;11.80;7.50;;;;;;;6.34;74.30;97973.08;1683880;83;25787;-91
2020/12/29 00:46:21;;;;;;;11.28;7.35;;;;;;;6.34;74.35;97967.89;1658118;84;25761;-90
2020/12/29 00:48:49;;;;;;;12.40;7.62;;;;;;;6.33;74.41;97963.20;1691600;82;25808;-90
2020/12/29 00:51:20;;;;;;;11.00;7.20;;;;;;;6.33;74.39;97964.50;1701747;82;25827;-89
2020/12/29 00:53:48;;;;;;;12.82;6.78;;;;;;;6.32;74.44;97962.88;1698644;82;27082;-90
2020/12/29 00:56:16;;;;;;;10.45;7.00;;;;;;;6.33;74.49;97961.08;1687532;83;26667;-89
2020/12/29 00:58:42;;;;;;;13.93;8.20;;;;;;;6.32;74.44;97961.59;1653271;84;26770;-90
2020/12/29 01:01:10;;;;;;;12.80;7.53;;;;;;;6.33;74.49;97949.41;1639652;85;26405;-90
2020/12/29 01:03:40;;;;;;;12.03;7.28;;;;;;;6.34;74.51;97949.73;1693843;83;25853;-90
2020/12/29 01:06:06;;;;;;;14.78;8.58;;;;;;;6.34;74.54;97928.98;1678398;83;25750;-91
2020/12/29 01:08:33;;;;;;;14.98;8.50;;;;;;;6.30;74.50;97924.69;1700678;82;25949;-90
2020/12/29 01:11:00;;;;;;;14.13;8.83;;;;;;;6.28;74.51;97923.29;1700529;82;25702;-91
2020/12/29 01:13:37;;;;;;;13.93;8.65;;;;;;;6.25;74.56;97915.88;1701379;82;26180;-90
2020/12/29 01:16:05;;;;;;;12.60;8.18;;;;;;;6.21;74.67;97919.38;1684089;83;25819;-90
2020/12/29 01:18:32;;;;;;;12.68;7.70;;;;;;;6.16;74.70;97912.17;1680988;83;25911;-91
2020/12/29 01:20:59;;;;;;;14.07;7.30;;;;;;;6.15;74.80;97907.99;1715293;81;25746;-92
2020/12/29 01:23:25;;;;;;;13.43;7.35;;;;;;;6.13;74.81;97906.59;1714725;81;26003;-92
2020/12/29 01:25:51;;;;;;;11.25;6.58;;;;;;;6.11;74.86;97902.91;1703251;83;25646;-92
2020/12/29 01:28:18;;;;;;;13.22;7.87;;;;;;;6.12;74.94;97898.02;1702999;82;25777;-92
2020/12/29 01:30:44;;;;;;;12.60;7.67;;;;;;;6.13;74.97;97899.60;1663819;84;26851;-92
2020/12/29 01:33:11;;;;;;;9.93;6.50;;;;;;;5.94;74.96;97860.19;1684335;83;25926;-91
2020/12/29 01:35:38;;;;;;;11.90;7.65;;;;;;;6.14;75.02;97890.05;1687783;84;26269;-91
2020/12/29 01:38:05;;;;;;;10.40;7.08;;;;;;;6.13;75.07;97888.44;1684944;83;25792;-89
2020/12/29 01:40:32;;;;;;;11.12;7.00;;;;;;;6.13;75.08;97889.23;1703814;82;25802;-90
2020/12/29 01:42:59;;;;;;;11.12;6.55;;;;;;;6.12;75.06;97881.66;1702050;83;25888;-91
2020/12/29 01:45:25;;;;;;;10.68;6.40;;;;;;;6.08;75.11;97882.54;1687402;83;25808;-88
2020/12/29 01:47:54;;;;;;;10.43;7.08;;;;;;;6.08;75.17;97884.34;1707399;83;25790;-89
2020/12/29 01:50:24;;;;;;;10.65;6.60;;;;;;;6.06;75.19;97881.17;1654876;84;25563;-90
2020/12/29 01:52:59;;;;;;;13.53;7.08;;;;;;;6.06;75.22;97879.87;1685658;83;26053;-91
2020/12/29 01:55:28;;;;;;;11.55;6.83;;;;;;;6.06;75.25;97883.76;1709245;81;25778;-90
2020/12/29 01:57:55;;;;;;;12.58;6.67;;;;;;;6.07;75.28;97886.64;1713385;81;25937;-90
2020/12/29 02:00:23;;;;;;;11.73;7.28;;;;;;;6.08;75.25;97878.65;1712377;81;25821;-91
2020/12/29 02:02:50;;;;;;;14.28;7.60;;;;;;;6.08;75.30;97872.67;1702331;81;25812;-90
2020/12/29 02:05:17;;;;;;;12.00;7.35;;;;;;;6.07;75.28;97864.60;1705082;81;25768;-90
2020/12/29 02:07:48;;;;;;;12.13;7.12;;;;;;;6.05;75.32;97861.40;1711903;82;26410;-91
2020/12/29 02:10:15;;;;;;;12.25;8.28;;;;;;;6.04;75.35;97860.61;1713871;81;26484;-91
2020/12/29 02:12:41;;;;;;;12.93;7.58;;;;;;;6.03;75.37;97856.90;1711597;81;25849;-90
2020/12/29 02:15:09;;;;;;;13.03;7.72;;;;;;;5.99;75.44;97853.41;1712770;82;26350;-91
2020/12/29 02:17:35;;;;;;;11.60;7.15;;;;;;;5.97;75.49;97850.71;1703302;81;26400;-89
2020/12/29 02:20:06;;;;;;;12.30;7.97;;;;;;;5.95;75.53;97853.52;1731939;81;25796;-90
2020/12/29 02:22:32;;;;;;;11.83;6.87;;;;;;;5.94;75.61;97850.61;1694123;81;26404;-90
2020/12/29 02:25:03;;;;;;;11.60;7.05;;;;;;;5.95;75.66;97847.04;1713389;81;25777;-89
2020/12/29 02:27:32;;;;;;;10.45;7.40;;;;;;;5.96;75.64;97836.95;1707729;82;25861;-91
2020/12/29 02:30:00;;;;;;;11.85;7.42;;;;;;;5.99;75.68;97835.77;1711371;81;25721;-90
2020/12/29 02:32:27;;;;;;;12.28;7.37;;;;;;;5.99;75.68;97831.38;1711191;82;25839;-90
2020/12/29 02:34:53;;;;;;;13.10;8.40;;;;;;;6.02;75.74;97830.69;1711297;81;25757;-90
2020/12/29 02:37:20;;;;;;;11.68;7.28;;;;;;;6.02;75.75;97822.41;1712501;81;25739;-90
2020/12/29 02:40:20;;;;;;;12.00;8.08;;;;;;;6.01;75.77;97815.63;1709384;82;26353;-89
2020/12/29 02:42:46;;;;;;;12.53;8.05;;;;;;;5.99;75.76;97817.11;1707794;81;25785;-91
2020/12/29 02:45:13;;;;;;;10.93;7.33;;;;;;;5.98;75.87;97811.64;1710399;82;26335;-91
2020/12/29 02:47:40;;;;;;;12.15;7.83;;;;;;;5.96;75.83;97796.77;1713071;81;25896;-90
2020/12/29 02:50:07;;;;;;;11.43;7.70;;;;;;;5.95;75.86;97795.19;1711996;81;26043;-89
2020/12/29 02:52:34;;;;;;;12.20;6.80;;;;;;;5.96;75.87;97789.50;1711924;82;25721;-89
2020/12/29 02:55:00;;;;;;;11.70;7.65;;;;;;;5.96;75.85;97789.00;1715249;82;25681;-89
2020/12/29 02:57:27;;;;;;;14.63;8.08;;;;;;;5.99;75.86;97783.41;1708100;81;26431;-90
2020/12/29 02:59:53;;;;;;;11.83;7.55;;;;;;;6.00;75.86;97787.62;1708734;82;25909;-90
2020/12/29 03:02:20;;;;;;;12.53;7.70;;;;;;;6.03;75.91;97785.13;1709582;81;26512;-89
2020/12/29 03:04:46;;;;;;;11.35;7.95;;;;;;;6.04;75.85;97772.95;1719216;81;25751;-90
2020/12/29 03:07:14;;;;;;;10.35;7.17;;;;;;;6.05;75.87;97778.42;1712243;81;25850;-89
2020/12/29 03:09:41;;;;;;;12.65;9.18;;;;;;;6.04;75.83;97780.23;1711841;81;26415;-91
2020/12/29 03:12:07;;;;;;;12.33;7.55;;;;;;;6.04;75.84;97780.73;1712348;81;25861;-89
2020/12/29 03:14:33;;;;;;;15.05;7.37;;;;;;;6.04;75.85;97776.84;1711667;81;25981;-90
2020/12/29 03:17:01;;;;;;;10.83;7.23;;;;;;;6.03;75.86;97764.38;1712771;82;25853;-89
2020/12/29 03:19:27;;;;;;;9.00;6.53;;;;;;;6.03;75.88;97768.27;1713379;82;25777;-89
2020/12/29 03:21:54;;;;;;;10.23;6.37;;;;;;;6.06;75.88;97763.98;1709221;81;25771;-89
2020/12/29 03:24:20;;;;;;;10.30;7.20;;;;;;;6.09;75.77;97769.27;1706421;83;25737;-90
2020/12/29 03:26:46;;;;;;;12.03;8.05;;;;;;;6.11;75.72;97764.66;1710276;81;25677;-90
2020/12/29 03:29:13;;;;;;;9.43;6.28;;;;;;;6.11;75.68;97765.48;1712002;81;25774;-91
2020/12/29 03:31:44;;;;;;;10.98;6.75;;;;;;;6.14;75.77;97762.98;1711632;81;25760;-88
2020/12/29 03:34:21;;;;;;;13.15;6.95;;;;;;;6.14;75.66;97767.66;1711158;81;25742;-91
2020/12/29 03:36:41;;;;;;;13.85;7.15;;;;;;;6.12;75.65;97757.19;1708926;82;25861;-91
2020/12/29 03:39:08;;;;;;;11.97;7.35;;;;;;;6.12;75.65;97744.23;1709398;81;25895;-90
2020/12/29 03:41:34;;;;;;;11.63;7.30;;;;;;;6.11;75.66;97742.61;1713084;82;25858;-90
2020/12/29 03:44:00;;;;;;;13.45;8.33;;;;;;;6.10;75.66;97744.41;1710245;81;25817;-91
2020/12/29 03:46:27;;;;;;;10.95;7.17;;;;;;;6.08;75.57;97740.42;1707922;82;26387;-90
2020/12/29 03:48:53;;;;;;;8.30;6.35;;;;;;;6.05;75.62;97731.75;1703705;81;26567;-90
2020/12/29 03:51:20;;;;;;;9.98;6.67;;;;;;;6.04;75.63;97731.47;1698622;81;25762;-90
2020/12/29 03:53:46;;;;;;;11.83;7.40;;;;;;;6.05;75.72;97732.55;1709232;82;25868;-90
2020/12/29 03:56:12;;;;;;;11.15;6.55;;;;;;;6.07;75.68;97729.77;1712082;82;25727;-89
2020/12/29 03:58:39;;;;;;;10.90;7.62;;;;;;;6.08;75.63;97732.14;1713212;81;25875;-90
2020/12/29 04:01:06;;;;;;;9.43;6.53;;;;;;;6.12;75.67;97718.30;1718582;82;25837;-90
2020/12/29 04:03:43;;;;;;;11.22;6.28;;;;;;;6.14;75.62;97715.80;1713238;82;26412;-89
2020/12/29 04:06:10;;;;;;;11.73;6.85;;;;;;;6.15;75.54;97712.20;1714562;82;25760;-89
2020/12/29 04:08:37;;;;;;;11.03;6.87;;;;;;;6.18;75.62;97718.78;1711175;82;25351;-90
2020/12/29 04:11:03;;;;;;;9.93;6.85;;;;;;;6.18;75.67;97713.09;1708784;81;25723;-90
2020/12/29 04:13:29;;;;;;;10.72;6.67;;;;;;;6.19;75.62;97721.19;1713356;81;25761;-89
2020/12/29 04:15:56;;;;;;;10.98;6.55;;;;;;;6.19;75.63;97713.41;1713251;82;26403;-91
2020/12/29 04:18:22;;;;;;;10.90;6.30;;;;;;;6.20;75.62;97712.90;1709744;81;25876;-92
2020/12/29 04:20:49;;;;;;;11.03;5.85;;;;;;;6.20;75.63;97715.49;1707345;81;25772;-91
2020/12/29 04:23:15;;;;;;;10.28;6.17;;;;;;;6.22;75.61;97710.91;1713398;81;26294;-92
2020/12/29 04:25:41;;;;;;;11.12;6.95;;;;;;;6.24;75.58;97699.81;1712516;81;25864;-92
2020/12/29 04:28:08;;;;;;;9.25;6.25;;;;;;;6.28;75.55;97697.63;1711024;81;26018;-93
2020/12/29 04:30:34;;;;;;;9.93;6.33;;;;;;;6.32;75.53;97705.28;1714973;82;25740;-92
2020/12/29 04:33:01;;;;;;;10.35;6.33;;;;;;;6.35;75.54;97698.38;1706834;83;25808;-91
2020/12/29 04:35:37;;;;;;;9.88;6.75;;;;;;;6.37;75.42;97698.98;1712498;82;27154;-91
2020/12/29 04:38:04;;;;;;;9.25;6.20;;;;;;;6.39;75.51;97698.30;1713760;81;25735;-91
2020/12/29 04:40:32;;;;;;;9.40;6.33;;;;;;;6.39;75.45;97696.48;1709997;81;25730;-91
2020/12/29 04:42:59;;;;;;;10.95;5.90;;;;;;;6.42;75.46;97695.28;1713946;81;25783;-91
2020/12/29 04:45:25;;;;;;;11.25;6.85;;;;;;;6.43;75.49;97689.88;1714909;82;25717;-92
2020/12/29 04:47:54;;;;;;;9.30;6.08;;;;;;;6.45;75.44;97689.17;1710539;81;25763;-93
2020/12/29 04:50:21;;;;;;;10.03;5.87;;;;;;;6.48;75.48;97682.78;1712148;81;26645;-90
2020/12/29 04:52:52;;;;;;;12.82;6.22;;;;;;;6.51;75.45;97681.58;1713944;81;25830;-91
2020/12/29 04:55:24;;;;;;;10.03;6.55;;;;;;;6.54;75.47;97672.88;1712542;82;26450;-91
2020/12/29 04:57:51;;;;;;;10.00;6.55;;;;;;;6.58;75.37;97681.06;1704679;81;25798;-92
2020/12/29 05:00:17;;;;;;;15.30;11.22;;;;;;;6.63;75.34;97673.47;1703714;81;26323;-92
2020/12/29 05:02:46;;;;;;;14.10;7.45;;;;;;;6.64;75.40;97671.16;1709073;82;26483;-89
2020/12/29 05:05:12;;;;;;;11.43;6.50;;;;;;;6.67;75.41;97672.03;1698307;81;25769;-90
2020/12/29 05:07:39;;;;;;;10.88;6.97;;;;;;;6.67;75.46;97665.55;1710456;81;26491;-92
2020/12/29 05:10:08;;;;;;;11.48;7.03;;;;;;;6.68;75.50;97667.13;1695621;83;26368;-92
2020/12/29 05:12:52;;;;;;;9.40;6.28;;;;;;;6.68;75.51;97659.34;1709099;82;26556;-91
2020/12/29 05:15:21;;;;;;;11.00;6.45;;;;;;;6.67;75.57;97662.45;1712608;81;25760;-91
2020/12/29 05:17:49;;;;;;;9.50;6.30;;;;;;;6.67;75.54;97661.15;1712260;81;25871;-92
2020/12/29 05:20:15;;;;;;;12.98;6.58;;;;;;;6.70;75.58;97649.56;1707532;81;26730;-91
2020/12/29 05:22:41;;;;;;;11.48;7.90;;;;;;;6.71;75.37;97650.34;1713667;81;25753;-90
2020/12/29 05:25:14;;;;;;;9.90;6.12;;;;;;;6.74;75.50;97645.56;1695426;82;46814;-91
2020/12/29 05:27:42;;;;;;;10.40;6.80;;;;;;;6.80;75.43;97654.31;1710789;81;25792;-90
2020/12/29 05:30:10;;;;;;;11.65;7.08;;;;;;;6.80;75.39;97643.93;1697483;83;25846;-91
2020/12/29 05:32:38;;;;;;;10.93;6.70;;;;;;;6.83;75.35;97642.22;1712783;81;25793;-90
2020/12/29 05:35:13;;;;;;;13.68;6.70;;;;;;;6.84;75.33;97640.69;1713854;81;26642;-92
2020/12/29 05:37:41;;;;;;;10.23;6.67;;;;;;;6.86;75.33;97642.58;1704600;81;25845;-92
2020/12/29 05:40:28;;;;;;;11.08;6.83;;;;;;;6.87;75.34;97628.62;1710465;81;25817;-92
2020/12/29 05:42:57;;;;;;;11.63;6.60;;;;;;;6.88;75.21;97626.30;1707777;81;26570;-92
2020/12/29 05:45:30;;;;;;;9.13;6.00;;;;;;;6.88;75.18;97632.00;1698132;81;26402;-92
2020/12/29 05:47:58;;;;;;;10.63;6.55;;;;;;;6.88;75.21;97630.20;1707180;81;25847;-91
2020/12/29 05:50:27;;;;;;;9.40;6.08;;;;;;;6.92;75.24;97631.87;1713042;82;26329;-90
2020/12/29 05:52:58;;;;;;;11.73;6.03;;;;;;;6.94;74.98;97632.46;1711116;81;26408;-90
2020/12/29 05:55:25;;;;;;;9.35;5.83;;;;;;;6.98;75.08;97630.23;1699928;82;25788;-90
2020/12/29 05:58:01;;;;;;;10.45;6.72;;;;;;;6.99;75.05;97627.95;1710220;82;25797;-91
2020/12/29 06:00:28;;;;;;;13.70;7.60;;;;;;;7.01;75.14;97616.34;1711063;81;25853;-91
2020/12/29 06:02:56;;;;;;;10.80;6.60;;;;;;;7.04;75.20;97622.92;1708382;81;25832;-90
2020/12/29 06:05:25;;;;;;;11.63;6.75;;;;;;;7.05;75.23;97621.91;1713124;81;26230;-91
2020/12/29 06:08:01;;;;;;;12.40;7.22;;;;;;;7.06;75.23;97619.59;1714488;81;26448;-90
2020/12/29 06:10:30;;;;;;;12.23;6.92;;;;;;;7.04;75.18;97606.05;1712870;81;26384;-90
2020/12/29 06:13:02;;;;;;;8.63;6.60;;;;;;;7.03;75.24;97603.14;1709111;82;25852;-90
2020/12/29 06:15:32;;;;;;;11.15;6.15;;;;;;;7.01;75.29;97608.55;1713586;82;25804;-90
2020/12/29 06:18:01;;;;;;;9.70;6.10;;;;;;;6.99;75.34;97606.66;1714129;82;25854;-90
2020/12/29 06:20:41;;;;;;;10.08;6.65;;;;;;;6.99;75.41;97607.97;1714486;81;25777;-91
2020/12/29 06:23:07;;;;;;;10.98;7.00;;;;;;;7.00;75.38;97608.75;1712976;81;25764;-91
2020/12/29 06:25:37;;;;;;;11.40;6.40;;;;;;;7.01;75.45;97604.66;1713090;81;25702;-90
2020/12/29 06:28:06;;;;;;;9.90;6.40;;;;;;;7.03;75.41;97607.82;1706918;81;26391;-90
2020/12/29 06:30:34;;;;;;;9.70;6.45;;;;;;;7.07;75.30;97609.52;1710707;81;25782;-90
2020/12/29 06:33:01;;;;;;;10.60;6.60;;;;;;;7.07;75.33;97596.53;1710728;81;25837;-90
2020/12/29 06:35:28;;;;;;;13.80;7.25;;;;;;;7.06;75.36;97602.20;1706692;81;25725;-90
2020/12/29 06:38:02;;;;;;;9.50;6.78;;;;;;;7.07;75.46;97595.23;1714274;81;26291;-93
2020/12/29 06:40:30;;;;;;;10.68;6.83;;;;;;;7.06;75.52;97591.81;1707249;82;25767;-91
2020/12/29 06:42:57;;;;;;;11.65;6.83;;;;;;;7.04;75.77;97600.34;1710173;81;26394;-92
2020/12/29 06:45:24;;;;;;;10.18;6.45;;;;;;;7.01;75.97;97592.98;1713272;81;25745;-91
2020/12/29 06:47:51;;;;;;;9.23;6.17;;;;;;;7.00;76.18;97595.77;1713789;81;26384;-91
2020/12/29 06:50:31;;;;;;;9.98;6.60;;;;;;;6.97;76.29;97587.11;1712073;82;25874;-90
2020/12/29 06:53:05;;;;;;;9.55;6.15;;;;;;;6.96;76.52;97592.02;1719833;80;26569;-91
2020/12/29 06:55:40;;;;;;;8.53;6.45;;;;;;;6.95;76.62;97584.70;1737767;80;25682;-91
2020/12/29 06:58:08;;;;;;;10.88;6.12;;;;;;;6.95;76.72;97579.52;1735937;80;25677;-90
2020/12/29 07:00:37;;;;;;;9.25;6.05;;;;;;;6.96;76.83;97570.73;1736257;80;25924;-90
2020/12/29 07:03:04;;;;;;;12.33;7.15;;;;;;;6.99;76.90;97569.02;1740917;80;25730;-89
2020/12/29 07:05:36;;;;;;;11.57;7.40;;;;;;;7.00;76.97;97568.00;1681865;83;25895;-89
2020/12/29 07:08:08;;;;;;;14.78;10.13;;;;;;;6.99;77.04;97562.52;1740486;80;25833;-90
2020/12/29 07:10:41;;;;;;;13.93;9.75;;;;;;;6.94;77.18;97560.27;1744093;80;26412;-90
2020/12/29 07:13:16;;;;;;;12.58;8.73;;;;;;;6.97;77.33;97567.13;1746058;80;25827;-90
2020/12/29 07:15:53;;;;;;;13.15;8.85;;;;;;;6.95;77.38;97566.53;1727377;81;26086;-90
2020/12/29 07:18:25;;;;;;;14.07;8.50;;;;;;;6.92;77.58;97564.36;1725591;80;25948;-90
2020/12/29 07:20:55;;;;;;;12.40;7.58;;;;;;;6.92;77.62;97568.77;1742824;80;26730;-90
2020/12/29 07:23:24;;;;;;;13.03;6.90;;;;;;;6.90;77.71;97565.06;1733866;81;25932;-90
2020/12/29 07:25:53;;;;;;;10.28;6.17;;;;;;;6.91;77.77;97558.09;1743380;80;25284;-90
2020/12/29 07:28:25;;;;;;;12.18;6.55;;;;;;;6.91;77.89;97560.69;1744824;80;26056;-89
2020/12/29 07:30:53;;;;;;;12.37;7.60;;;;;;;6.89;77.97;97560.89;1737730;80;25761;-89
2020/12/29 07:33:26;;;;;;;10.88;6.45;;;;;;;6.89;78.09;97558.30;1745253;80;25698;-90
2020/12/29 07:35:54;;;;;;;12.55;7.40;;;;;;;6.92;78.25;97554.48;1739182;82;25934;-89
2020/12/29 07:38:24;;;;;;;14.93;8.03;;;;;;;6.94;78.34;97553.78;1743469;80;25997;-90
2020/12/29 07:40:52;;;;;;;13.90;8.45;;;;;;;6.96;78.45;97559.56;1732987;80;26371;-89
2020/12/29 07:43:18;;;;;;;14.73;8.60;;;;;;;6.96;78.52;97556.97;1738041;80;26077;-91
2020/12/29 07:45:45;;;;;;;13.55;8.63;;;;;;;6.93;78.63;97559.48;1723624;81;26390;-90
2020/12/29 07:48:11;;;;;;;13.03;8.13;;;;;;;6.92;78.72;97558.38;1721659;81;25794;-90
2020/12/29 07:50:40;;;;;;;15.45;8.35;;;;;;;6.89;78.82;97565.58;1720453;81;25964;-90
2020/12/29 07:53:10;;;;;;;12.90;8.15;;;;;;;6.86;78.89;97558.20;1721136;82;26389;-90
2020/12/29 07:55:43;;;;;;;13.38;7.65;;;;;;;6.85;79.05;97568.82;1708242;82;25729;-89
2020/12/29 07:58:10;;;;;;;17.07;7.17;;;;;;;6.86;79.18;97566.51;1714093;81;25957;-91
2020/12/29 08:00:39;;;;;;;13.00;7.95;;;;;;;6.84;79.25;97562.81;1729209;80;25707;-90
2020/12/29 08:03:06;;;;;;;13.28;7.65;;;;;;;6.81;79.40;97569.72;1718116;82;25949;-91
2020/12/29 08:05:34;;;;;;;12.78;8.10;;;;;;;6.81;79.54;97566.34;1718543;82;26456;-89
2020/12/29 08:08:07;;;;;;;12.53;7.80;;;;;;;6.84;79.69;97573.70;1711934;82;26385;-90
2020/12/29 08:10:37;;;;;;;13.32;7.42;;;;;;;6.82;79.82;97560.95;1712938;81;25781;-90
2020/12/29 08:13:09;;;;;;;12.15;7.85;;;;;;;6.83;79.91;97566.42;1717561;82;25356;-89
2020/12/29 08:15:40;;;;;;;14.18;9.18;;;;;;;6.83;80.00;97572.13;1721120;83;25757;-90
2020/12/29 08:18:19;;;;;;;15.60;10.38;;;;;;;6.82;80.14;97571.81;1717145;81;25866;-90
2020/12/29 08:20:57;;;;;;;16.67;9.98;;;;;;;6.79;80.25;97569.16;1712021;81;25638;-91
2020/12/29 08:23:27;;;;;;;14.53;8.28;;;;;;;6.79;80.46;97573.05;1718611;81;25786;-89
2020/12/29 08:25:58;;;;;;;15.13;8.93;;;;;;;6.81;80.59;97581.41;1735572;80;26308;-90
2020/12/29 08:28:27;;;;;;;13.83;8.20;;;;;;;6.82;80.73;97576.52;1734639;80;25778;-90
2020/12/29 08:30:56;;;;;;;15.20;9.05;;;;;;;6.83;80.73;97578.10;1745408;81;25858;-89
2020/12/29 08:33:25;;;;;;;16.00;9.73;;;;;;;6.78;80.80;97576.63;1736574;80;26477;-89
2020/12/29 08:35:58;;;;;;;12.95;9.35;;;;;;;6.73;80.90;97576.46;1701339;82;25836;-89
2020/12/29 08:38:45;;;;;;;15.98;10.20;;;;;;;6.73;81.13;97576.46;1740131;80;26457;-90
2020/12/29 08:41:22;;;;;;;18.77;9.20;;;;;;;6.71;81.31;97572.00;1740595;80;25849;-90
2020/12/29 08:43:52;;;;;;;13.10;8.13;;;;;;;6.69;81.41;97572.70;1739158;80;25774;-89
2020/12/29 08:46:24;;;;;;;11.40;8.43;;;;;;;6.71;81.59;97568.11;1742597;80;26390;-88
2020/12/29 08:48:59;;;;;;;14.60;8.85;;;;;;;6.69;81.61;97572.70;1741423;80;25688;-90
2020/12/29 08:51:28;;;;;;;13.85;8.73;;;;;;;6.70;81.82;97569.61;1737043;80;26516;-89
2020/12/29 08:54:15;;;;;;;13.62;7.83;;;;;;;6.70;81.85;97572.98;1737159;80;25707;-88
2020/12/29 08:56:43;;;;;;;15.00;7.33;;;;;;;6.67;81.97;97576.80;1702694;82;25791;-90
2020/12/29 08:59:19;;;;;;;11.63;7.40;;;;;;;6.63;82.17;97573.05;1710293;82;25925;-89
2020/12/29 09:01:52;;;;;;;12.80;7.03;;;;;;;6.64;82.41;97573.83;1712188;82;25768;-90
2020/12/29 09:04:29;;;;;;;13.03;7.60;;;;;;;6.62;82.46;97578.42;1711046;82;25746;-89
2020/12/29 09:07:02;;;;;;;12.28;7.12;;;;;;;6.64;82.68;97577.73;1709990;82;25800;-89
2020/12/29 09:09:31;;;;;;;10.95;6.42;;;;;;;6.65;82.76;97572.81;1705751;82;25798;-89
2020/12/29 09:12:11;;;;;;;9.68;6.40;;;;;;;6.64;82.88;97569.94;1706733;82;25871;-89
2020/12/29 09:14:39;;;;;;;10.88;6.80;;;;;;;6.64;82.99;97566.84;1709490;82;34952;-89
2020/12/29 09:17:07;;;;;;;13.18;6.53;;;;;;;6.64;83.08;97562.94;1708627;82;25925;-89
2020/12/29 09:19:34;;;;;;;9.40;4.95;;;;;;;6.66;83.18;97569.23;1706677;82;26821;-89
2020/12/29 09:22:11;;;;;;;8.65;4.30;;;;;;;6.67;83.37;97565.62;1708447;82;25820;-89
2020/12/29 09:24:42;;;;;;;7.45;4.20;;;;;;;6.66;83.47;97567.43;1706932;82;26577;-89
2020/12/29 09:27:08;;;;;;;11.83;7.15;;;;;;;6.66;83.51;97573.12;1711118;82;25742;-89
2020/12/29 09:29:35;;;;;;;19.57;13.38;;;;;;;6.67;83.72;97565.62;1707578;82;25981;-89
2020/12/29 09:32:01;;;;;;;9.43;5.03;;;;;;;6.69;83.90;97558.44;1709043;82;25975;-89
2020/12/29 09:34:28;;;;;;;17.82;12.37;;;;;;;6.69;83.99;97562.83;1726913;80;25827;-89
2020/12/29 09:36:54;;;;;;;24.45;17.57;;;;;;;6.71;84.10;97560.33;1734436;80;26662;-89
2020/12/29 09:39:21;;;;;;;14.33;10.80;;;;;;;6.72;84.28;97562.41;1728533;80;26348;-90
2020/12/29 09:41:55;;;;;;;13.88;10.23;;;;;;;6.75;84.36;97564.59;1731716;80;25623;-90
2020/12/29 09:44:22;;;;;;;13.58;8.98;;;;;;;6.78;84.52;97562.36;1728243;80;26333;-90
2020/12/29 09:46:48;;;;;;;8.95;6.10;;;;;;;6.78;84.55;97563.66;1702162;82;25317;-90
2020/12/29 09:49:14;;;;;;;7.45;4.28;;;;;;;6.78;84.72;97555.87;1731990;80;25911;-90
2020/12/29 09:51:41;;;;;;;5.45;3.70;;;;;;;6.78;84.66;97574.55;1730635;80;26275;-90
2020/12/29 09:54:07;;;;;;;7.12;4.37;;;;;;;6.77;84.87;97576.35;1719476;82;25852;-90
2020/12/29 09:56:34;;;;;;;7.85;4.35;;;;;;;6.77;84.92;97588.03;1701173;82;25724;-91
2020/12/29 09:59:01;;;;;;;5.65;3.70;;;;;;;6.80;85.21;97587.61;1701797;82;25771;-90
2020/12/29 10:01:27;;;;;;;7.28;3.42;;;;;;;6.80;85.23;97588.12;1704071;82;25765;-91
2020/12/29 10:03:54;;;;;;;7.95;4.85;;;;;;;6.77;85.26;97591.92;1700834;82;25765;-91
2020/12/29 10:06:20;;;;;;;8.73;4.35;;;;;;;6.80;85.37;97605.78;1698250;82;26439;-90
2020/12/29 10:08:47;;;;;;;7.90;4.22;;;;;;;6.85;85.42;97603.36;1699751;82;26355;-89
2020/12/29 10:11:13;;;;;;;5.17;2.95;;;;;;;6.87;85.63;97608.33;1701706;82;25792;-91
2020/12/29 10:13:40;;;;;;;5.45;3.30;;;;;;;6.85;85.84;97633.72;1677991;83;27093;-90
2020/12/29 10:16:07;;;;;;;4.80;2.90;;;;;;;6.81;85.61;97642.41;1661785;84;25720;-91
2020/12/29 10:18:33;;;;;;;3.27;2.15;;;;;;;6.76;85.40;97647.93;1703022;83;25671;-89
2020/12/29 10:21:00;;;;;;;4.47;2.50;;;;;;;6.70;85.50;97644.88;1697921;82;25919;-87
2020/12/29 10:23:27;;;;;;;6.15;3.20;;;;;;;6.61;85.61;97673.66;1698880;82;25737;-90
2020/12/29 10:25:53;;;;;;;5.08;2.72;;;;;;;6.55;85.38;97671.10;1700392;82;25896;-88
2020/12/29 10:28:19;;;;;;;5.00;3.25;;;;;;;6.46;85.51;97667.91;1699553;82;26362;-90
2020/12/29 10:30:48;;;;;;;7.35;3.10;;;;;;;6.39;85.53;97684.81;1697514;82;25679;-90
2020/12/29 10:33:15;;;;;;;5.12;2.85;;;;;;;6.33;85.68;97692.13;1702257;82;25923;-90
2020/12/29 10:35:41;;;;;;;4.85;3.15;;;;;;;6.28;85.81;97686.75;1702170;82;25313;-91
2020/12/29 10:38:08;;;;;;;4.55;3.20;;;;;;;6.20;86.12;97710.30;1715277;81;25792;-90
2020/12/29 10:40:35;;;;;;;4.97;3.08;;;;;;;6.15;85.91;97710.11;1715281;81;25982;-87
2020/12/29 10:43:01;;;;;;;3.95;2.67;;;;;;;6.08;85.99;97709.31;1649210;84;26345;-90
2020/12/29 10:45:28;;;;;;;11.75;3.87;;;;;;;5.97;86.10;97723.68;1654899;84;25940;-87
2020/12/29 10:47:54;;;;;;;5.03;3.00;;;;;;;5.87;86.04;97737.03;1672083;83;26740;-88
2020/12/29 10:50:21;;;;;;;6.20;3.92;;;;;;;5.78;85.82;97745.98;1681167;83;25637;-89
2020/12/29 10:52:48;;;;;;;7.37;3.33;;;;;;;5.69;86.10;97756.25;1683865;83;25855;-89
2020/12/29 10:55:14;;;;;;;5.40;3.27;;;;;;;5.64;85.99;97758.63;1682282;83;25775;-90
2020/12/29 10:57:41;;;;;;;5.20;3.12;;;;;;;5.54;85.83;97768.11;1681921;83;25888;-88
2020/12/29 11:00:07;;;;;;;6.12;2.85;;;;;;;5.45;85.80;97780.42;1681821;83;26558;-89
2020/12/29 11:02:34;;;;;;;6.58;3.15;;;;;;;5.36;85.94;97783.40;1677077;84;26438;-90
2020/12/29 11:05:01;;;;;;;6.80;3.22;;;;;;;5.26;86.04;97799.30;1680417;83;25740;-90
2020/12/29 11:07:28;;;;;;;5.78;3.05;;;;;;;5.18;86.35;97808.02;1678866;83;25824;-88
2020/12/29 11:09:54;;;;;;;5.33;3.12;;;;;;;5.12;86.58;97813.48;1676573;83;26593;-90
2020/12/29 11:12:20;;;;;;;5.83;3.47;;;;;;;5.04;86.89;97828.38;1676406;83;25879;-89
2020/12/29 11:14:47;;;;;;;6.20;3.55;;;;;;;5.00;87.09;97842.72;1680947;83;25733;-89
2020/12/29 11:17:13;;;;;;;5.53;3.15;;;;;;;4.96;87.00;97852.63;1679043;83;26000;-89
2020/12/29 11:19:40;;;;;;;6.55;3.60;;;;;;;4.94;87.42;97869.34;1679761;84;25373;-89
2020/12/29 11:22:06;;;;;;;6.40;4.45;;;;;;;4.89;87.62;97884.96;1676266;83;25773;-90
2020/12/29 11:24:33;;;;;;;7.35;4.35;;;;;;;4.86;87.67;97884.05;1681838;83;25757;-89
2020/12/29 11:26:59;;;;;;;7.12;4.67;;;;;;;4.87;87.70;97883.55;1677968;84;26593;-90
2020/12/29 11:29:26;;;;;;;7.55;4.33;;;;;;;4.85;87.95;97897.16;1682583;83;25952;-89
2020/12/29 11:31:52;;;;;;;9.33;5.37;;;;;;;4.85;88.09;97903.13;1681808;83;25705;-89
2020/12/29 11:34:18;;;;;;;8.78;5.90;;;;;;;4.87;88.00;97918.48;1681923;83;25839;-88
2020/12/29 11:36:45;;;;;;;10.13;5.80;;;;;;;4.85;88.31;97931.60;1680186;83;26121;-89
2020/12/29 11:39:12;;;;;;;8.78;6.22;;;;;;;4.87;88.21;97942.57;1691532;83;25990;-90
2020/12/29 11:41:38;;;;;;;12.93;6.22;;;;;;;4.89;88.52;97944.48;1678625;83;25939;-90
2020/12/29 11:44:05;;;;;;;8.78;6.28;;;;;;;4.88;88.64;97947.25;1673557;83;25816;-89